Time;durP1;ratioP1;P1;durP2;ratioP2;P2;SDS_P1;SDS_P2;PMS_P1;PMS_P2;Temp;Humidity;BMP_temperature;BMP_pressure;BME280_temperature;BME280_humidity;BME280_pressure;Samples;Min_cycle;Max_cycle;Signal;HPM_P1;HPM_P2
2023/01/20 00:02:55;;;;;;;17.23;10.80;;;22.20;44.20;;;;;;6101085;28;82929;-61
2023/01/20 00:05:56;;;;;;;15.38;10.13;;;22.20;44.20;;;;;;6098538;28;84056;-60
2023/01/20 00:08:57;;;;;;;14.88;10.07;;;22.10;44.30;;;;;;6109667;28;83519;-59
2023/01/20 00:11:57;;;;;;;15.32;10.45;;;22.10;44.20;;;;;;6088385;28;83795;-60
2023/01/20 00:14:58;;;;;;;16.63;10.95;;;22.10;44.30;;;;;;6100014;28;82823;-60
2023/01/20 00:17:58;;;;;;;15.43;10.60;;;22.10;44.30;;;;;;6113885;28;83693;-60
2023/01/20 00:20:59;;;;;;;13.07;9.93;;;22.10;44.20;;;;;;6100147;28;83169;-60
2023/01/20 00:23:59;;;;;;;15.45;10.50;;;22.10;44.20;;;;;;6102869;28;82880;-60
2023/01/20 00:27:00;;;;;;;13.38;9.60;;;22.10;44.10;;;;;;6113865;28;84705;-59
2023/01/20 00:30:00;;;;;;;14.68;9.35;;;22.10;44.20;;;;;;6096114;28;84862;-59
2023/01/20 00:33:01;;;;;;;14.60;9.95;;;22.10;44.10;;;;;;6093865;28;81918;-59
2023/01/20 00:36:01;;;;;;;15.90;10.63;;;22.10;44.20;;;;;;6097303;28;80074;-59
2023/01/20 00:39:02;;;;;;;13.73;9.95;;;22.10;44.20;;;;;;6102503;28;85467;-60
2023/01/20 00:42:03;;;;;;;15.70;10.20;;;22.10;44.10;;;;;;6101347;28;82844;-48
2023/01/20 00:45:03;;;;;;;15.25;9.90;;;22.10;44.10;;;;;;6100695;28;83149;-52
2023/01/20 00:48:04;;;;;;;15.18;9.52;;;22.10;44.00;;;;;;6110964;28;83034;-53
2023/01/20 00:51:04;;;;;;;14.55;10.00;;;22.10;43.90;;;;;;6098533;28;80266;-53
2023/01/20 00:54:05;;;;;;;14.23;8.85;;;22.10;43.90;;;;;;6090189;28;83408;-53
2023/01/20 00:57:05;;;;;;;14.73;9.15;;;22.10;44.00;;;;;;6092853;28;83389;-54
2023/01/20 01:00:06;;;;;;;12.15;9.18;;;22.10;43.70;;;;;;6117781;28;81303;-62
2023/01/20 01:03:06;;;;;;;13.25;9.18;;;22.10;44.00;;;;;;6104328;28;80404;-62
2023/01/20 01:06:07;;;;;;;13.95;10.23;;;22.10;43.90;;;;;;6102582;28;80946;-62
2023/01/20 01:09:07;;;;;;;16.95;10.30;;;22.10;43.70;;;;;;6100279;28;83782;-62
2023/01/20 01:12:08;;;;;;;13.93;9.63;;;22.10;43.60;;;;;;6078087;28;85266;-62
2023/01/20 01:15:09;;;;;;;14.43;10.05;;;22.10;43.80;;;;;;6083896;28;82911;-61
2023/01/20 01:18:09;;;;;;;15.90;10.15;;;22.10;43.60;;;;;;6112827;28;83259;-54
2023/01/20 01:21:10;;;;;;;14.75;9.65;;;22.10;44.30;;;;;;6113187;28;83167;-51
2023/01/20 01:24:10;;;;;;;13.65;9.18;;;22.10;43.50;;;;;;6094467;28;85964;-53
2023/01/20 01:27:11;;;;;;;12.90;8.90;;;22.10;43.60;;;;;;6100022;28;80988;-51
2023/01/20 01:30:11;;;;;;;13.35;9.13;;;22.10;43.60;;;;;;6103713;28;81533;-54
2023/01/20 01:33:12;;;;;;;15.07;9.65;;;22.10;43.60;;;;;;6102310;28;80299;-49
2023/01/20 01:36:12;;;;;;;13.52;9.30;;;22.10;43.70;;;;;;6103044;28;80543;-60
2023/01/20 01:39:13;;;;;;;13.75;8.95;;;22.10;43.60;;;;;;6101799;28;80798;-60
2023/01/20 01:42:13;;;;;;;14.55;9.43;;;22.10;43.60;;;;;;6104607;28;81213;-59
2023/01/20 01:45:14;;;;;;;15.25;10.07;;;22.10;43.50;;;;;;6101872;28;81550;-59
2023/01/20 01:48:14;;;;;;;12.98;9.50;;;22.10;43.50;;;;;;6098548;28;82757;-60
2023/01/20 01:51:15;;;;;;;14.52;10.65;;;22.10;43.50;;;;;;6091005;28;82871;-61
2023/01/20 01:54:15;;;;;;;15.25;10.38;;;22.10;43.40;;;;;;6082712;28;82774;-60
2023/01/20 01:57:16;;;;;;;16.27;10.25;;;22.10;43.40;;;;;;6077635;28;83296;-59
2023/01/20 02:00:16;;;;;;;16.48;10.48;;;22.10;43.20;;;;;;6081026;28;83350;-59
2023/01/20 02:03:17;;;;;;;15.32;10.63;;;22.00;43.20;;;;;;6087792;28;84727;-60
2023/01/20 02:06:17;;;;;;;15.20;10.50;;;22.00;43.20;;;;;;6090048;28;84082;-59
2023/01/20 02:09:18;;;;;;;15.50;9.82;;;22.10;43.40;;;;;;6098771;28;83404;-59
2023/01/20 02:12:19;;;;;;;17.10;10.65;;;22.00;43.20;;;;;;6087840;28;83222;-59
2023/01/20 02:15:21;;;;;;;14.00;9.93;;;22.10;43.30;;;;;;6093064;28;83244;-59
2023/01/20 02:18:22;;;;;;;16.95;10.48;;;22.10;43.50;;;;;;6107759;28;81743;-59
2023/01/20 02:21:22;;;;;;;16.50;10.45;;;22.00;43.50;;;;;;6091918;28;83241;-59
2023/01/20 02:24:23;;;;;;;15.13;9.60;;;22.10;43.60;;;;;;6103947;28;83099;-59
2023/01/20 02:27:23;;;;;;;13.63;9.88;;;22.00;43.20;;;;;;6111033;28;81730;-60
2023/01/20 02:30:24;;;;;;;14.75;9.95;;;22.10;43.20;;;;;;6110985;28;83386;-58
2023/01/20 02:33:24;;;;;;;15.30;10.15;;;22.00;43.20;;;;;;6103285;28;80547;-59
2023/01/20 02:36:25;;;;;;;17.52;11.30;;;22.00;43.30;;;;;;6104501;28;83454;-61
2023/01/20 02:39:25;;;;;;;16.13;10.38;;;22.00;43.10;;;;;;6099280;28;85153;-61
2023/01/20 02:42:26;;;;;;;16.33;11.30;;;22.00;43.30;;;;;;6100606;28;83368;-60
2023/01/20 02:45:26;;;;;;;17.20;10.70;;;22.00;43.30;;;;;;6102489;28;82901;-60
2023/01/20 02:48:27;;;;;;;15.25;10.30;;;22.10;43.20;;;;;;6094319;28;83908;-58
2023/01/20 02:51:28;;;;;;;17.80;11.25;;;22.10;43.40;;;;;;6105029;28;82937;-60
2023/01/20 02:54:28;;;;;;;17.08;11.45;;;22.00;43.00;;;;;;6116025;28;83499;-61
2023/01/20 02:57:29;;;;;;;14.27;10.63;;;22.00;43.10;;;;;;6092882;28;86510;-62
2023/01/20 03:00:29;;;;;;;15.70;10.93;;;22.00;43.20;;;;;;6094652;28;83860;-59
2023/01/20 03:03:30;;;;;;;14.90;10.57;;;22.00;42.90;;;;;;6103893;28;83138;-60
2023/01/20 03:06:30;;;;;;;17.38;10.77;;;22.10;43.60;;;;;;6102683;28;83931;-60
2023/01/20 03:09:31;;;;;;;18.90;11.50;;;22.00;42.90;;;;;;6103533;28;83300;-60
2023/01/20 03:12:31;;;;;;;18.67;11.02;;;22.10;42.90;;;;;;6087381;28;83205;-58
2023/01/20 03:15:32;;;;;;;15.30;11.35;;;22.00;43.00;;;;;;6099234;28;83148;-59
2023/01/20 03:18:33;;;;;;;17.70;11.30;;;22.00;43.10;;;;;;6110404;28;83612;-60
2023/01/20 03:21:33;;;;;;;13.85;9.77;;;22.00;43.10;;;;;;6102941;28;83379;-60
2023/01/20 03:24:34;;;;;;;15.77;10.23;;;22.00;43.30;;;;;;6106819;28;82853;-60
2023/01/20 03:27:34;;;;;;;19.33;10.93;;;22.00;43.30;;;;;;6103647;28;83070;-58
2023/01/20 03:30:35;;;;;;;14.90;10.20;;;22.00;43.40;;;;;;6112966;28;82786;-59
2023/01/20 03:33:35;;;;;;;14.93;9.68;;;22.00;43.30;;;;;;6113599;28;85653;-59
2023/01/20 03:36:36;;;;;;;16.17;9.73;;;22.00;43.60;;;;;;6112987;28;82101;-59
2023/01/20 03:39:38;;;;;;;14.70;9.70;;;22.00;43.40;;;;;;6107537;28;80673;-59
2023/01/20 03:42:39;;;;;;;15.88;10.48;;;22.00;43.60;;;;;;6097780;28;80508;-59
2023/01/20 03:45:39;;;;;;;14.95;9.93;;;22.00;43.50;;;;;;6089542;28;83241;-59
2023/01/20 03:48:40;;;;;;;13.07;9.55;;;22.00;43.60;;;;;;6097635;28;89728;-60
2023/01/20 03:51:40;;;;;;;14.90;9.48;;;22.00;43.40;;;;;;6100140;28;81423;-59
2023/01/20 03:54:41;;;;;;;16.17;10.13;;;22.00;43.50;;;;;;6105538;28;80202;-59
2023/01/20 03:57:41;;;;;;;14.77;10.20;;;22.00;43.40;;;;;;6101736;28;83389;-58
2023/01/20 04:00:42;;;;;;;15.98;10.43;;;21.90;43.50;;;;;;6099051;28;83230;-58
2023/01/20 04:03:42;;;;;;;16.25;10.80;;;21.90;43.50;;;;;;6100844;28;83095;-61
2023/01/20 04:06:43;;;;;;;16.90;10.35;;;21.90;43.50;;;;;;6102550;28;83631;-61
2023/01/20 04:09:43;;;;;;;15.35;10.15;;;22.00;43.30;;;;;;6100727;28;83290;-61
2023/01/20 04:12:44;;;;;;;13.90;9.68;;;22.00;43.20;;;;;;6096340;28;83079;-61
2023/01/20 04:15:44;;;;;;;15.45;9.95;;;22.00;43.10;;;;;;6104905;28;83047;-61
2023/01/20 04:18:45;;;;;;;16.00;10.55;;;22.00;43.00;;;;;;6104118;28;80368;-61
2023/01/20 04:21:45;;;;;;;16.13;10.60;;;22.00;43.20;;;;;;6092260;28;84827;-59
2023/01/20 04:24:46;;;;;;;14.90;9.88;;;22.00;43.10;;;;;;6092763;28;83121;-60
2023/01/20 04:27:46;;;;;;;15.10;10.63;;;22.00;42.90;;;;;;6093218;28;82948;-59
2023/01/20 04:30:47;;;;;;;15.40;10.77;;;22.00;43.00;;;;;;6088695;28;83146;-60
2023/01/20 04:33:48;;;;;;;16.10;10.55;;;22.00;43.00;;;;;;6097656;28;83053;-60
2023/01/20 04:36:48;;;;;;;17.23;10.68;;;22.00;43.10;;;;;;6097367;28;83819;-60
2023/01/20 04:39:49;;;;;;;13.13;9.60;;;22.00;42.90;;;;;;6096017;28;83481;-61
2023/01/20 04:42:49;;;;;;;15.80;10.05;;;22.00;42.90;;;;;;6101025;28;86091;-60
2023/01/20 04:45:50;;;;;;;16.90;11.25;;;22.00;43.00;;;;;;6098005;28;82861;-60
2023/01/20 04:48:51;;;;;;;19.77;12.32;;;22.00;43.00;;;;;;6090760;28;84001;-60
2023/01/20 04:51:51;;;;;;;16.67;11.02;;;22.00;42.90;;;;;;6093011;28;84054;-60
2023/01/20 04:54:52;;;;;;;17.23;10.05;;;22.00;43.30;;;;;;6076110;28;83934;-59
2023/01/20 04:57:52;;;;;;;19.35;10.45;;;22.00;43.10;;;;;;6101587;28;82947;-59
2023/01/20 05:00:53;;;;;;;19.27;10.25;;;22.00;43.30;;;;;;6080666;28;83489;-59
2023/01/20 05:03:53;;;;;;;14.75;9.90;;;22.00;43.70;;;;;;6085360;28;84189;-59
2023/01/20 05:06:54;;;;;;;15.50;10.18;;;22.00;44.10;;;;;;6093417;28;82990;-59
2023/01/20 05:09:54;;;;;;;13.77;9.45;;;22.00;44.10;;;;;;6083555;28;83653;-57
2023/01/20 05:12:55;;;;;;;17.23;10.18;;;22.00;44.40;;;;;;6088803;28;82863;-57
2023/01/20 05:15:55;;;;;;;18.58;9.77;;;22.00;44.40;;;;;;6077909;28;83080;-67
2023/01/20 05:18:56;;;;;;;17.52;9.70;;;22.00;44.20;;;;;;6098689;28;82853;-59
2023/01/20 05:21:56;;;;;;;14.85;9.43;;;22.00;43.90;;;;;;6089349;28;81334;-59
2023/01/20 05:24:57;;;;;;;14.60;9.57;;;22.00;44.00;;;;;;6099152;28;80399;-58
2023/01/20 05:27:57;;;;;;;15.52;9.93;;;22.10;43.90;;;;;;6096800;28;81930;-60
2023/01/20 05:30:58;;;;;;;14.55;9.60;;;22.00;43.60;;;;;;6095464;28;81992;-60
2023/01/20 05:33:58;;;;;;;13.63;9.30;;;22.00;43.50;;;;;;6102177;28;80944;-60
2023/01/20 05:36:59;;;;;;;12.75;9.40;;;22.00;43.50;;;;;;6078020;28;80999;-60
2023/01/20 05:39:59;;;;;;;14.73;9.50;;;22.10;43.90;;;;;;6073306;28;81585;-61
2023/01/20 05:43:00;;;;;;;12.23;8.82;;;22.10;43.80;;;;;;6068488;28;81187;-59
2023/01/20 05:46:00;;;;;;;11.05;7.97;;;22.10;43.80;;;;;;6083394;28;81637;-63
2023/01/20 05:49:01;;;;;;;13.45;8.90;;;22.10;44.10;;;;;;6083803;28;81691;-58
2023/01/20 05:52:02;;;;;;;17.35;9.13;;;22.10;43.90;;;;;;6094494;28;81631;-59
2023/01/20 05:55:03;;;;;;;13.32;9.23;;;22.10;43.90;;;;;;6093174;28;85798;-58
2023/01/20 05:58:04;;;;;;;12.15;8.27;;;22.10;44.10;;;;;;6090132;28;80858;-59
2023/01/20 06:01:05;;;;;;;11.52;8.70;;;22.10;44.40;;;;;;6101244;28;81230;-57
2023/01/20 06:04:05;;;;;;;15.18;8.82;;;22.10;44.50;;;;;;6076297;28;81484;-58
2023/01/20 06:07:06;;;;;;;17.10;9.27;;;22.10;45.10;;;;;;6098014;28;80508;-58
2023/01/20 06:10:07;;;;;;;15.52;8.90;;;22.20;44.30;;;;;;6095254;28;80813;-56
2023/01/20 06:13:08;;;;;;;14.07;9.77;;;22.20;44.40;;;;;;6099251;28;86290;-57
2023/01/20 06:16:08;;;;;;;16.75;9.85;;;22.20;44.60;;;;;;6096974;28;81112;-59
2023/01/20 06:19:09;;;;;;;14.52;8.63;;;22.10;44.10;;;;;;6105413;28;80589;-57
2023/01/20 06:22:09;;;;;;;15.30;8.95;;;22.10;44.10;;;;;;6099151;28;81336;-58
2023/01/20 06:25:10;;;;;;;17.77;8.50;;;22.10;44.50;;;;;;6104368;28;80365;-57
2023/01/20 06:28:10;;;;;;;16.77;9.00;;;22.10;44.50;;;;;;6102118;28;80768;-55
2023/01/20 06:31:11;;;;;;;15.95;9.60;;;22.10;44.60;;;;;;6102467;28;80845;-58
2023/01/20 06:34:12;;;;;;;12.02;8.82;;;22.10;44.20;;;;;;6093697;28;80405;-56
2023/01/20 06:37:12;;;;;;;13.13;9.10;;;22.10;44.40;;;;;;6104332;28;80520;-58
2023/01/20 06:40:13;;;;;;;15.70;9.85;;;22.00;44.00;;;;;;6103575;28;80289;-59
2023/01/20 06:43:14;;;;;;;15.48;9.50;;;22.10;44.00;;;;;;6095893;28;80394;-58
2023/01/20 06:46:14;;;;;;;13.20;9.30;;;22.00;44.30;;;;;;6107543;28;80799;-57
2023/01/20 06:49:15;;;;;;;18.13;10.77;;;22.10;44.50;;;;;;6106917;28;81044;-64
2023/01/20 06:52:16;;;;;;;14.05;10.05;;;22.10;45.50;;;;;;6102922;28;82915;-64
2023/01/20 06:55:16;;;;;;;14.68;8.85;;;22.10;45.40;;;;;;6100166;28;83267;-63
2023/01/20 06:58:16;;;;;;;15.45;9.65;;;22.20;45.80;;;;;;6095309;28;83224;-63
2023/01/20 07:01:17;;;;;;;13.82;8.35;;;22.10;45.50;;;;;;6099399;28;80309;-62
2023/01/20 07:04:17;;;;;;;14.30;9.65;;;22.20;45.10;;;;;;6093524;28;81095;-61
2023/01/20 07:07:18;;;;;;;15.35;9.10;;;22.10;44.80;;;;;;6090178;28;80766;-64
2023/01/20 07:10:19;;;;;;;15.27;9.77;;;22.10;44.90;;;;;;6086847;28;80784;-61
2023/01/20 07:13:19;;;;;;;15.98;10.00;;;22.10;44.90;;;;;;6090597;28;81519;-63
2023/01/20 07:16:20;;;;;;;12.55;8.65;;;22.10;44.60;;;;;;6110847;28;84943;-73
2023/01/20 07:19:20;;;;;;;14.25;9.27;;;22.10;44.80;;;;;;6093470;28;84082;-61
2023/01/20 07:22:21;;;;;;;14.73;9.30;;;22.10;44.50;;;;;;6096384;28;80287;-60
2023/01/20 07:25:21;;;;;;;15.57;8.40;;;22.10;44.40;;;;;;6086153;28;80494;-60
2023/01/20 07:28:22;;;;;;;15.40;9.65;;;22.10;44.60;;;;;;6095021;28;82826;-60
2023/01/20 07:31:22;;;;;;;14.77;9.65;;;22.10;44.20;;;;;;6101804;28;80450;-60
2023/01/20 07:34:23;;;;;;;13.70;9.27;;;22.10;44.20;;;;;;6099373;28;80241;-60
2023/01/20 07:37:23;;;;;;;15.35;9.57;;;22.00;44.20;;;;;;6102671;28;87115;-59
2023/01/20 07:40:24;;;;;;;13.38;9.15;;;22.10;44.50;;;;;;6104911;28;80702;-59
2023/01/20 07:43:24;;;;;;;16.55;9.82;;;22.10;45.10;;;;;;6097415;28;82817;-60
2023/01/20 07:46:25;;;;;;;15.50;9.13;;;22.00;45.10;;;;;;6109640;28;80810;-69
2023/01/20 07:49:25;;;;;;;20.13;10.25;;;22.00;45.00;;;;;;6093934;28;80759;-60
2023/01/20 07:52:26;;;;;;;17.10;10.73;;;22.00;44.90;;;;;;6090738;28;84399;-62
2023/01/20 07:55:26;;;;;;;17.77;10.85;;;22.10;45.00;;;;;;6105043;28;83137;-64
2023/01/20 07:58:27;;;;;;;17.25;10.40;;;22.10;44.70;;;;;;6084518;28;84971;-63
2023/01/20 08:01:27;;;;;;;22.30;10.40;;;22.10;44.40;;;;;;6100080;28;84042;-64
2023/01/20 08:04:28;;;;;;;20.98;10.43;;;22.10;44.40;;;;;;6070433;28;83110;-64
2023/01/20 08:07:28;;;;;;;17.90;11.05;;;22.10;44.30;;;;;;5983544;28;87748;-63
2023/01/20 08:10:29;;;;;;;15.88;10.57;;;22.10;44.50;;;;;;5984634;28;84050;-60
2023/01/20 08:13:30;;;;;;;21.55;10.45;;;22.10;44.60;;;;;;5781471;28;100148;-62
2023/01/20 08:16:30;;;;;;;16.38;9.95;;;22.10;44.50;;;;;;5554231;28;88380;-62
2023/01/20 08:19:31;;;;;;;18.45;10.93;;;22.20;44.40;;;;;;6079408;28;83142;-62
2023/01/20 08:22:31;;;;;;;17.33;9.43;;;22.20;44.00;;;;;;6084724;28;87971;-61
2023/01/20 08:25:32;;;;;;;16.80;9.30;;;22.20;44.10;;;;;;6086161;28;82881;-61
2023/01/20 08:28:32;;;;;;;16.85;9.70;;;22.20;44.10;;;;;;6097949;28;80782;-64
2023/01/20 08:31:33;;;;;;;15.50;10.43;;;22.20;44.20;;;;;;6099436;28;80469;-62
2023/01/20 08:34:34;;;;;;;15.57;10.25;;;22.20;44.00;;;;;;6085902;28;83101;-63
2023/01/20 08:37:34;;;;;;;16.20;9.65;;;22.10;44.40;;;;;;6085785;28;87681;-65
2023/01/20 08:40:35;;;;;;;19.60;10.40;;;22.20;44.10;;;;;;6088868;28;83125;-63
2023/01/20 08:43:35;;;;;;;16.85;10.23;;;22.20;44.20;;;;;;6089780;28;87649;-60
2023/01/20 08:46:36;;;;;;;15.77;10.05;;;22.20;44.20;;;;;;6088101;28;84494;-61
2023/01/20 08:49:37;;;;;;;16.75;10.77;;;22.20;44.00;;;;;;6068612;28;84709;-60
2023/01/20 08:52:37;;;;;;;18.27;10.50;;;22.30;44.10;;;;;;6076990;28;83278;-60
2023/01/20 08:55:38;;;;;;;14.90;9.52;;;22.20;43.90;;;;;;6089011;28;82926;-61
2023/01/20 08:58:39;;;;;;;16.42;10.93;;;22.20;43.90;;;;;;6084426;28;89701;-58
2023/01/20 09:01:40;;;;;;;17.60;11.35;;;22.20;44.00;;;;;;6091464;28;83422;-71
2023/01/20 09:04:42;;;;;;;17.77;11.27;;;22.20;43.80;;;;;;6081393;28;86033;-61
2023/01/20 09:07:44;;;;;;;17.95;11.40;;;22.20;43.70;;;;;;6087370;28;83644;-59
2023/01/20 09:10:44;;;;;;;16.25;11.30;;;22.20;43.80;;;;;;6087552;28;83477;-59
2023/01/20 09:13:45;;;;;;;16.08;10.27;;;22.30;43.80;;;;;;6085176;28;83461;-59
2023/01/20 09:16:45;;;;;;;16.55;10.25;;;22.30;43.80;;;;;;6084122;28;83089;-59
2023/01/20 09:19:46;;;;;;;17.77;11.45;;;22.20;43.60;;;;;;6087004;28;84301;-60
2023/01/20 09:22:46;;;;;;;17.95;10.93;;;22.20;43.70;;;;;;6096075;28;83103;-66
2023/01/20 09:25:47;;;;;;;23.70;13.68;;;22.20;43.50;;;;;;6083586;28;83446;-62
2023/01/20 09:28:47;;;;;;;19.60;12.75;;;22.20;43.30;;;;;;6079504;28;83144;-58
2023/01/20 09:31:48;;;;;;;19.33;11.95;;;22.20;43.20;;;;;;6086129;28;83503;-59
2023/01/20 09:34:48;;;;;;;20.33;12.27;;;22.20;43.40;;;;;;6082892;28;83391;-59
2023/01/20 09:44:27;;;;;;;22.95;13.23;;;22.30;43.60;;;;;;6087131;28;83914;-59
2023/01/20 09:47:28;;;;;;;21.60;12.88;;;22.30;43.50;;;;;;6081192;28;83457;-59
2023/01/20 09:53:47;;;;;;;21.73;13.20;;;22.30;43.40;;;;;;6091198;28;83161;-59
2023/01/20 09:56:48;;;;;;;20.83;12.50;;;22.30;43.30;;;;;;6081797;28;86488;-58
2023/01/20 09:59:48;;;;;;;21.52;13.75;;;22.30;43.40;;;;;;6100181;28;84091;-59
2023/01/20 10:02:49;;;;;;;19.48;12.70;;;22.40;43.40;;;;;;6101234;28;83721;-60
2023/01/20 10:05:49;;;;;;;22.25;13.43;;;22.40;43.30;;;;;;6086893;28;84737;-60
2023/01/20 10:08:50;;;;;;;23.40;13.80;;;22.40;43.20;;;;;;6082508;28;84967;-59
2023/01/20 10:11:50;;;;;;;22.92;14.60;;;22.40;43.20;;;;;;6084446;28;83486;-58
2023/01/20 10:14:51;;;;;;;23.50;14.18;;;22.30;43.10;;;;;;6096465;28;84022;-58
2023/01/20 10:17:51;;;;;;;25.95;13.75;;;22.40;43.30;;;;;;6083846;28;87346;-58
2023/01/20 10:20:52;;;;;;;24.75;14.95;;;22.30;44.10;;;;;;6094241;28;86299;-59
2023/01/20 10:23:53;;;;;;;33.90;15.48;;;22.40;43.70;;;;;;6081883;28;85292;-56
2023/01/20 10:26:53;;;;;;;27.75;15.45;;;22.30;43.60;;;;;;6088431;28;83893;-58
2023/01/20 10:29:54;;;;;;;27.75;14.95;;;22.40;43.70;;;;;;6097527;28;84189;-57
2023/01/20 10:36:01;;;;;;;27.65;15.23;;;22.40;43.60;;;;;;6109162;28;83892;-57
2023/01/20 10:39:01;;;;;;;23.80;14.35;;;22.40;43.50;;;;;;6112758;28;87398;-60
2023/01/20 10:42:02;;;;;;;23.05;14.77;;;22.40;43.40;;;;;;6123295;28;83858;-58
2023/01/20 10:45:02;;;;;;;25.63;15.65;;;22.40;43.40;;;;;;6131040;28;83236;-59
2023/01/20 10:48:03;;;;;;;27.70;15.70;;;22.40;43.40;;;;;;6120375;28;83038;-58
2023/01/20 10:51:03;;;;;;;26.95;16.27;;;22.40;43.20;;;;;;6110438;28;84482;-59
2023/01/20 10:54:04;;;;;;;27.80;14.82;;;22.50;43.40;;;;;;6118679;28;83413;-58
2023/01/20 10:57:05;;;;;;;24.90;14.80;;;22.50;43.30;;;;;;6112256;28;83750;-58
2023/01/20 11:00:06;;;;;;;26.73;15.52;;;22.40;43.40;;;;;;6126692;28;83148;-58
2023/01/20 11:03:10;;;;;;;26.48;16.92;;;22.40;43.60;;;;;;6117618;28;85053;-57
2023/01/20 11:06:11;;;;;;;27.55;16.15;;;22.50;43.90;;;;;;6122464;28;84579;-58
2023/01/20 11:09:11;;;;;;;31.05;17.15;;;22.50;44.20;;;;;;6112905;28;84711;-52
2023/01/20 11:12:12;;;;;;;29.52;17.20;;;22.50;44.30;;;;;;6111679;28;84507;-59
2023/01/20 11:15:12;;;;;;;28.92;17.17;;;22.40;44.30;;;;;;6124158;28;88243;-53
2023/01/20 11:18:13;;;;;;;30.90;16.90;;;22.50;45.60;;;;;;6117226;28;83998;-53
2023/01/20 11:21:14;;;;;;;29.52;16.75;;;22.50;45.40;;;;;;6118164;28;89473;-56
2023/01/20 11:24:14;;;;;;;33.08;16.73;;;22.40;45.00;;;;;;6108104;28;84574;-56
2023/01/20 11:27:15;;;;;;;30.30;16.10;;;22.40;45.00;;;;;;6115604;28;83127;-54
2023/01/20 11:30:15;;;;;;;29.52;16.85;;;22.40;44.80;;;;;;6123995;28;83072;-66
2023/01/20 11:33:16;;;;;;;27.65;16.42;;;22.50;45.10;;;;;;6123269;28;83150;-53
2023/01/20 11:36:17;;;;;;;29.23;16.40;;;22.40;45.10;;;;;;6122222;28;83993;-54
2023/01/20 11:39:18;;;;;;;26.02;15.10;;;22.40;45.00;;;;;;6118511;28;83224;-53
2023/01/20 11:42:22;;;;;;;36.35;14.80;;;22.40;44.80;;;;;;6125672;28;84171;-55
2023/01/20 11:45:22;;;;;;;25.73;14.63;;;22.40;44.70;;;;;;6121698;28;83355;-52
2023/01/20 11:48:23;;;;;;;22.38;14.65;;;22.40;44.80;;;;;;6121375;28;85840;-54
2023/01/20 11:51:27;;;;;;;24.55;15.18;;;22.30;44.00;;;;;;6123520;28;89805;-54
2023/01/20 11:54:27;;;;;;;28.55;15.60;;;22.30;43.60;;;;;;6135660;28;85374;-55
2023/01/20 11:57:28;;;;;;;25.55;15.05;;;22.30;43.40;;;;;;6125985;28;83555;-55
2023/01/20 12:00:28;;;;;;;28.65;15.57;;;22.20;43.10;;;;;;6122915;28;83101;-54
2023/01/20 12:03:29;;;;;;;26.77;15.10;;;22.20;43.00;;;;;;6125619;28;83205;-52
2023/01/20 12:06:29;;;;;;;29.25;15.55;;;22.20;42.80;;;;;;6134155;28;83452;-53
2023/01/20 12:09:30;;;;;;;29.27;15.98;;;22.20;42.70;;;;;;6126052;28;83719;-53
2023/01/20 12:12:30;;;;;;;30.00;16.10;;;22.10;42.50;;;;;;6118743;28;83185;-54
2023/01/20 12:15:31;;;;;;;22.35;13.93;;;22.10;42.60;;;;;;6125643;28;83201;-53
2023/01/20 12:18:31;;;;;;;27.90;16.38;;;22.10;42.50;;;;;;6126423;28;83274;-53
2023/01/20 12:21:32;;;;;;;28.30;16.35;;;22.10;42.40;;;;;;6138353;28;83111;-53
2023/01/20 12:25:06;;;;;;;25.63;15.70;;;22.10;42.40;;;;;;6126372;28;82904;-55
2023/01/20 12:27:53;;;;;;;30.08;15.25;;;22.10;42.30;;;;;;6123725;28;84388;-55
2023/01/20 12:30:53;;;;;;;25.00;15.10;;;22.10;42.20;;;;;;6125883;28;83960;-52
2023/01/20 12:33:54;;;;;;;25.10;14.85;;;22.00;42.10;;;;;;6140698;28;83364;-53
2023/01/20 12:36:55;;;;;;;25.85;14.43;;;22.00;42.10;;;;;;6125825;28;84244;-53
2023/01/20 12:39:56;;;;;;;25.25;15.07;;;22.00;42.10;;;;;;6126492;28;83013;-58
2023/01/20 12:42:56;;;;;;;24.70;15.35;;;22.00;42.10;;;;;;6125656;28;83044;-57
2023/01/20 12:45:58;;;;;;;24.63;14.68;;;22.00;41.90;;;;;;6125335;28;83568;-57
2023/01/20 12:48:58;;;;;;;23.70;14.40;;;22.00;42.00;;;;;;6125320;28;84498;-58
2023/01/20 12:51:59;;;;;;;24.70;14.75;;;21.90;41.90;;;;;;6124675;28;84078;-57
2023/01/20 12:54:59;;;;;;;28.35;15.73;;;22.00;41.90;;;;;;6123279;28;84807;-57
2023/01/20 12:58:00;;;;;;;25.23;15.43;;;22.00;41.90;;;;;;6138027;28;83040;-53
2023/01/20 13:01:00;;;;;;;23.00;14.65;;;22.00;41.90;;;;;;6139384;28;83174;-52
2023/01/20 13:04:01;;;;;;;24.70;15.45;;;22.00;41.90;;;;;;6124633;28;82904;-53
2023/01/20 13:07:03;;;;;;;25.77;15.85;;;21.90;41.70;;;;;;6131333;28;83613;-54
2023/01/20 13:10:03;;;;;;;26.10;14.70;;;21.90;41.70;;;;;;6126203;28;84063;-54
2023/01/20 13:13:04;;;;;;;25.33;15.65;;;21.90;41.80;;;;;;6129681;28;83351;-53
2023/01/20 13:16:04;;;;;;;26.80;16.15;;;21.90;41.90;;;;;;6125095;28;83101;-54
2023/01/20 13:19:05;;;;;;;23.17;15.45;;;21.90;41.80;;;;;;6125748;28;83634;-53
2023/01/20 13:22:05;;;;;;;24.73;14.95;;;21.90;41.80;;;;;;6124107;28;83022;-55
2023/01/20 13:25:06;;;;;;;25.58;14.90;;;21.90;41.80;;;;;;6124193;28;83274;-53
2023/01/20 13:28:07;;;;;;;22.92;14.25;;;21.90;41.70;;;;;;6104468;28;85799;-53
2023/01/20 13:31:07;;;;;;;22.60;13.65;;;21.80;41.70;;;;;;6095229;28;88487;-57
2023/01/20 13:34:08;;;;;;;25.10;15.15;;;21.90;41.90;;;;;;6105894;28;83885;-54
2023/01/20 13:37:09;;;;;;;25.55;13.15;;;21.90;42.50;;;;;;6113140;28;83870;-54
2023/01/20 13:40:09;;;;;;;20.88;12.73;;;21.90;42.20;;;;;;6117312;28;83153;-61
2023/01/20 13:43:10;;;;;;;22.83;13.82;;;21.90;42.60;;;;;;6133060;28;82922;-53
2023/01/20 13:46:10;;;;;;;23.73;14.55;;;21.90;42.30;;;;;;6114857;28;84572;-54
2023/01/20 13:49:11;;;;;;;23.48;14.77;;;21.90;42.60;;;;;;6115425;28;83013;-56
2023/01/20 13:52:11;;;;;;;22.45;13.20;;;21.90;42.70;;;;;;6112894;28;84030;-60
2023/01/20 13:55:12;;;;;;;25.92;14.40;;;21.90;42.80;;;;;;6121090;28;83534;-59
2023/01/20 13:58:12;;;;;;;25.48;13.40;;;21.90;42.80;;;;;;6137980;28;83026;-59
2023/01/20 14:01:14;;;;;;;24.08;13.43;;;22.00;43.50;;;;;;6134187;28;84072;-58
2023/01/20 14:04:16;;;;;;;23.80;13.60;;;22.00;42.80;;;;;;6115324;28;83207;-62
2023/01/20 14:07:17;;;;;;;24.60;13.88;;;22.00;42.70;;;;;;6119310;28;83932;-69
2023/01/20 14:10:17;;;;;;;22.45;12.65;;;22.00;42.60;;;;;;6121451;28;83822;-68
2023/01/20 14:13:18;;;;;;;22.95;13.68;;;22.00;42.50;;;;;;6133606;28;83369;-58
2023/01/20 14:16:18;;;;;;;23.33;13.60;;;22.00;42.50;;;;;;6128991;28;83499;-59
2023/01/20 14:19:19;;;;;;;22.98;13.63;;;22.00;42.60;;;;;;6130238;28;86940;-56
2023/01/20 14:22:19;;;;;;;24.25;13.45;;;22.00;42.40;;;;;;6117151;28;83211;-59
2023/01/20 14:25:20;;;;;;;21.15;13.70;;;22.00;42.50;;;;;;6122824;28;83484;-58
2023/01/20 14:28:21;;;;;;;22.52;12.45;;;22.00;42.40;;;;;;6122007;28;83253;-59
2023/01/20 14:31:21;;;;;;;21.27;12.23;;;22.00;42.30;;;;;;6121780;28;83583;-57
2023/01/20 14:34:22;;;;;;;24.33;13.15;;;22.10;42.30;;;;;;6121858;28;83056;-56
2023/01/20 14:37:22;;;;;;;25.48;13.82;;;22.10;42.80;;;;;;6130962;28;83458;-59
2023/01/20 14:40:23;;;;;;;23.67;13.30;;;22.00;42.20;;;;;;6124697;28;83371;-59
2023/01/20 14:43:23;;;;;;;20.92;12.65;;;22.10;42.20;;;;;;6129939;28;83526;-59
2023/01/20 14:46:24;;;;;;;29.15;13.85;;;22.10;42.20;;;;;;6128578;28;85331;-58
2023/01/20 14:49:24;;;;;;;21.85;13.30;;;22.10;42.10;;;;;;6130670;28;84151;-59
2023/01/20 14:52:25;;;;;;;22.10;12.35;;;22.10;42.20;;;;;;6118157;28;86311;-61
2023/01/20 14:55:25;;;;;;;21.40;13.25;;;22.10;42.20;;;;;;6123077;28;83190;-60
2023/01/20 14:58:28;;;;;;;21.60;12.73;;;22.20;42.20;;;;;;6097838;28;87224;-58
2023/01/20 15:01:29;;;;;;;25.88;13.82;;;22.10;42.20;;;;;;6103096;28;84265;-59
2023/01/20 15:04:29;;;;;;;24.00;13.90;;;22.10;42.40;;;;;;6111195;28;83332;-60
2023/01/20 15:07:30;;;;;;;27.83;14.98;;;22.20;42.10;;;;;;6113219;28;83172;-67
2023/01/20 15:10:30;;;;;;;22.73;14.70;;;22.20;42.20;;;;;;6107529;28;84080;-59
2023/01/20 15:13:31;;;;;;;26.88;15.60;;;22.20;42.20;;;;;;6109743;28;82862;-60
2023/01/20 15:16:31;;;;;;;28.83;15.38;;;22.20;42.50;;;;;;6112178;28;86005;-59
2023/01/20 15:19:32;;;;;;;24.08;14.88;;;22.20;42.50;;;;;;6106437;28;85828;-62
2023/01/20 15:22:32;;;;;;;22.63;13.93;;;22.20;42.60;;;;;;6119346;28;83910;-58
2023/01/20 15:25:33;;;;;;;24.67;13.90;;;22.20;42.50;;;;;;6103813;28;83086;-60
2023/01/20 15:28:33;;;;;;;26.80;14.48;;;22.20;43.30;;;;;;6135733;28;83363;-60
2023/01/20 15:31:34;;;;;;;28.13;15.27;;;22.20;43.00;;;;;;6124477;28;84437;-58
2023/01/20 15:34:34;;;;;;;29.20;14.18;;;22.10;42.60;;;;;;6140669;28;83710;-59